ACT        NSW        VIC        QLD        SA        WA        TAS        NT        INFO        CALC            by VK5ZD

  Atmospheric Gas Attenuation - ITU Rec 676-11   --------------- db/100km ---------------
NSW Stations Date Time Temp RH % AH g/m3 Dew Point Wind Direction Speed kph Gust kph Barometer mB Rainfall Since 9am 24GHz 47GHz 76GHz 122GHz 134GHz 241GHz
Albion Park 15 01:00 11.2 99 10.04 11 6 11 1018 3 22.8 29.3 47.5 125.0 122.5 422.3
Albury 15 01:00 6 88 6.39 4.2 6 6 1018.8 0 15.2 24.7 34.7 90.7 78.1 266.4
Armidale Airport 15 01:00 3.4 97 5.93 3 9 11 1014.7 0.4 14.3 24.5 33.8 88.2 74.2 252.1
Badgerys Creek 15 01:00 10.3 99 9.48 10.1 7 11 1017.4 2.4 21.7 28.6 45.6 119.8 115.8 398.7
Ballina 15 01:00 13.4 89 10.35 11.6 6 7 1014.5 0.4 23.4 29.0 47.4 124.6 123.0 424.5
Bankstown 15 01:00 11.5 98 10.12 11.2 7 9 1017.2 12 23.0 29.3 47.7 125.3 123.1 424.4
Bathurst Airport 15 01:00 7.2 98 7.7 6.9 7 9 1017.4 0.6 18.0 26.5 39.6 103.7 94.8 324.8
Bega 15 01:00 8.3 99 8.35 8.2 7 9 1019.9 3.8 19.3 27.4 41.9 109.9 102.7 352.8
Bellambi 15 01:00 11.3 91 9.28 9.9 17 26 1013.1 15.4 21.2 27.8 43.9 115.5 111.0 382.4
Borrona Downs 15 01:00 8.7 93 8.05 7.6 1013.1 0 18.7 26.5 40.1 105.2 97.4 334.4
Bourke 15 01:00 8.7 86 7.44 6.5 2 7 1017.2 0 17.3 25.6 37.7 98.9 89.4 306.1
Brewon 15 01:00 9.1 91 8.08 7.7 1013.1 0.8 18.7 26.4 40.0 105.0 97.3 334.1
Broken Hill Airport 15 01:00 10.7 80 7.86 7.4 11 13 1016.2 1.6 18.1 25.7 38.5 100.8 92.6 317.7
Camden 15 01:00 9.6 99 9.07 9.5 0 0 1017.5 1.8 20.8 28.1 44.2 116.1 110.9 381.7
Campbelltown 15 01:00 10 99 9.3 9.9 2 6 1013.1 6 21.3 28.2 44.8 117.6 113.2 389.9
Canterbury 15 01:00 11.6 100 10.4 11.6 2 6 1013.1 21.8 23.6 29.6 48.6 128.0 126.6 436.6
Cape Byron 15 01:00 14.7 77 9.69 10.7 17 20 1014.6 0 21.9 27.5 43.8 115.2 111.9 385.8
Casino 15 01:00 12.3 94 10.21 11.4 7 9 1014.3 0.2 23.1 29.1 47.4 124.7 122.8 423.6
Cessnock Airport 15 01:00 11.1 87 8.76 9 4 7 1016.2 0 20.1 27.1 42.0 110.2 104.4 358.9
Cobar 15 01:00 7.5 98 7.85 7.2 7 9 1016.7 2.2 18.3 26.6 40.0 105.0 96.4 330.7
Cobar Airport 15 01:00 8.4 93 7.89 7.3 4 7 1017.3 1.2 18.3 26.5 39.8 104.3 95.9 329.0
Coffs Harbour Airport 15 01:00 12 89 9.49 10.2 6 7 1014.7 0 21.6 28.0 44.5 117.0 113.1 389.7
Condobolin Airport 15 01:00 8.4 99 8.4 8.3 6 7 1017.6 3.6 19.4 27.4 42.0 110.1 103.1 354.1
Coonabarabran Airport 15 01:00 8.2 87 7.29 6.2 11 13 1016.3 0 17.0 25.5 37.3 97.7 87.8 300.7
Coonamble 15 01:00 8.7 92 7.96 7.5 17 20 1017.9 1 18.5 26.5 39.9 104.7 96.6 331.3
Cowra 15 01:00 8.8 97 8.45 8.4 7 11 1017.9 3.4 19.5 27.3 42.0 110.2 103.3 354.9
Delta 15 01:00 8.4 87 7.38 6.4 1013.1 0 17.2 25.4 37.5 98.2 88.6 303.4
Deniliquin 15 01:00 7.4 96 7.64 6.8 0 0 1018.5 2.2 17.8 26.4 39.3 102.9 93.8 321.3
Dubbo 15 01:00 9 91 8.03 7.6 7 11 1017.4 0.2 18.6 26.5 40.1 105.1 97.1 333.3
Evans Head 15 01:00 12.9 82 9.24 9.9 9 11 1014.2 0 21.0 27.3 42.9 112.8 108.3 373.0
Forbes 15 01:00 8.7 99 8.56 8.6 2 6 1017.3 0.2 19.7 27.5 42.5 111.5 104.9 360.6
Fowlers Gap 15 01:00 9.4 83 7.51 6.7 11 13 1016.4 0 17.5 25.5 37.7 98.7 89.4 306.5
Girilambone 15 01:00 8.8 97 8.45 8.4 1013.1 5.6 19.5 27.1 41.8 109.6 102.9 353.5
Glen Innes Airport 15 01:00 2.1 94 5.26 1.2 11 13 1015.3 0 12.9 23.8 31.6 82.3 66.2 224.1
Gosford 15 01:00 11.7 96 10.04 11.1 7 11 1013.1 11 22.8 29.0 47.0 123.6 121.2 418.0
Grafton Agrs 15 01:00 10.9 96 9.55 10.3 0 6 1013.1 0 21.8 28.4 45.3 119.2 115.4 397.7
Grafton Airport 15 01:00 9.5 97 8.83 9 0 0 1014.7 0 20.3 27.6 43.1 113.2 107.4 369.4
Green Cape 15 01:00 11.9 87 9.22 9.8 22 28 1019.6 4 21.0 27.7 43.7 114.6 109.9 378.5
Griffith 15 01:00 8 98 8.11 7.7 6 9 1017.8 2 18.8 27.0 40.9 107.4 99.5 341.6
Gunnedah Airport 15 01:00 6.7 94 7.15 5.8 7 9 1016.2 0 16.8 25.7 37.4 98.1 87.6 299.7
Gunnedah Resource Centre 15 01:00 9.5 85 7.74 7.1 1015.9 0 17.9 25.8 38.5 101.0 92.4 316.8
Hay Airport 15 01:00 7.8 99 8.08 7.7 11 13 1017.8 2.8 18.8 27.0 40.9 107.3 99.4 341.0
High Range (Wanganderry) 15 01:00 6.2 98 7.21 5.9 11 17 1017.2 1.6 16.9 26.0 38.0 99.5 89.1 304.8
Holsworthy 15 01:00 11 96 9.61 10.4 0 0 1017.3 13 21.9 28.6 45.7 120.2 116.5 401.5
Holsworthy (Defence) 15 01:00 10.2 95 9.04 9.4 0 4 1013.1 11.2 20.7 27.7 43.5 114.4 109.3 376.0
Horsley Park 15 01:00 10.6 98 9.57 10.3 7 13 1013.1 3.6 21.8 28.5 45.6 119.9 116.2 400.3
Inverell 14 15:00 13.1 50 5.71 3.1 2 1013.1 0 13.5 21.6 29.1 75.8 62.8 213.6
Inverell Rs 15 01:00 6 82 5.96 3.2 7 9 1015.2 0 14.3 23.9 32.8 85.7 72.1 245.4
Ivanhoe Airport 15 01:00 9.1 99 8.79 9 9 13 1016.7 1.6 20.2 27.8 43.2 113.5 107.6 370.0
Kapooka (Defence) 15 01:00 8.6 88 7.56 6.7 11 15 1013.1 0.2 17.6 25.7 38.1 99.9 90.8 311.2
Kempsey Airport 15 01:00 12.1 100 10.73 12.1 11 15 1014.5 0 24.3 30.1 49.8 131.2 130.7 451.0
Khancoban 15 01:00 5.9 96 6.93 5.3 0 0 1019.2 0 16.4 25.7 37.0 96.9 85.7 292.8
Kiama 15 01:00 12 85 9.06 9.6 15 22 1013.1 4.6 20.7 27.2 42.6 112.0 107.0 368.3
Lake Macquarie - Cooranbong 15 01:00 10.8 96 9.49 10.2 0 0 1016.6 2.6 21.7 28.4 45.3 119.0 115.1 396.4
Lismore Airport 15 01:00 11.5 96 9.92 10.9 9 13 1014.6 0.2 22.5 28.9 46.6 122.7 119.9 413.5
Lord Howe Island 15 01:00 15.2 70 9.09 9.8 11 15 1012 0 20.6 26.2 41.0 107.7 102.9 354.6
Lucas Heights (Ansto) 15 00:30 10.4 95 9.16 9.6 7 11 1013.1 16.9 21.0 27.9 43.9 115.4 110.7 380.9
Maitland Airport 15 01:00 10.9 98 9.75 10.6 0 7 1016.1 0 22.2 28.8 46.3 121.8 118.6 408.7
Mangrove Mountain 15 01:00 9.6 97 8.89 9.1 2 4 1013.1 4.4 20.4 27.6 43.2 113.5 108.0 371.5
Marrangaroo (Defence) 15 01:00 5.6 96 6.79 5 0 0 1013.1 2.2 16.1 25.3 36.3 95.1 83.6 285.6
Merimbula 15 01:00 8.5 99 8.46 8.4 7 9 1019.9 0.4 19.5 27.5 42.3 110.9 104.0 357.3
Merriwa 15 01:00 8.9 96 8.41 8.3 7 9 1016.9 0.2 19.4 27.2 41.7 109.4 102.5 352.1
Moree 15 01:00 8.2 97 8.13 7.8 9 11 1016.4 0 18.8 26.9 40.9 107.2 99.4 341.4
Moruya Heads 14 15:00 14.5 72 8.96 9.6 15 1018.8 0 20.3 26.5 41.1 108.0 102.7 353.7
Moss Vale 15 01:00 7.3 97 7.67 6.9 13 17 1017.9 0.8 17.9 26.4 39.4 103.3 94.3 323.0
Mount Boyce 15 01:00 5 99 6.73 4.9 4 11 1013.1 3.4 16.0 25.3 36.3 95.1 83.5 284.9
Mount Hope 15 01:00 7.7 98 7.95 7.4 1013.1 3.4 18.5 26.6 40.2 105.5 97.3 333.8
Mount Seaview 14 15:00 17.6 64 9.6 10.8 4 1013.1 0.4 21.5 26.4 41.8 109.9 106.5 367.3
Mudgee 15 01:00 9.2 98 8.75 8.9 2 7 1016.8 1 20.1 27.7 43.0 112.9 106.9 367.5
Mulurulu 15 01:00 9.1 100 8.88 9.1 1013.1 2.4 20.4 27.8 43.4 114.1 108.6 373.4
Murrurundi Gap 15 01:00 8 100 8.27 8 19 24 1015.2 0.8 19.2 27.2 41.5 108.9 101.6 348.8
Murwillumbah 14 15:00 20.2 88 15.39 18.1 0 1013.1 0 33.7 35.4 64.8 171.2 182.8 633.9
Narrabri 15 01:00 6.6 100 7.55 6.6 7 9 1017.3 0 17.7 26.4 39.2 102.8 93.4 319.9
Narrandera Airport 15 01:00 7.4 100 7.96 7.4 7 9 1018.5 1 18.5 26.9 40.6 106.6 98.3 337.1
Nerriga 15 01:00 7 98 7.6 6.7 6 7 1018.8 3.2 17.8 26.5 39.3 103.0 93.7 321.1
Newcastle Nobbys 15 01:00 14.4 82 10.14 11.4 28 37 1013.1 25.8 22.9 28.3 45.8 120.5 118.4 408.4
Noona 15 01:00 8.5 95 8.11 7.7 1013.1 0.8 18.8 26.6 40.5 106.2 98.5 338.1
Norah Head 15 01:00 12.2 95 10.25 11.4 11 17 1016.3 15.4 23.2 29.3 47.7 125.6 123.7 426.8
Norfolk Island 15 01:00 17.2 79 11.57 13.5 17 24 1009.3 0.2 25.8 29.6 49.9 131.6 133.2 460.8
Nullo Mountain 15 01:00 4.8 99 6.64 4.7 11 19 1013.1 0.6 15.8 25.2 36.1 94.4 82.4 281.3
Orange Airport 15 01:00 5.8 99 7.1 5.7 6 9 1017.3 5 16.7 25.9 37.7 98.7 88.0 301.0
Parkes Airport 15 01:00 8.6 99 8.51 8.5 7 9 1017.7 2 19.6 27.5 42.3 111.1 104.4 358.7
Penrith 15 01:00 11 94 9.41 10.1 7 13 1013.1 2.4 21.5 28.1 44.7 117.4 113.3 390.3
Point Perpendicular 15 01:00 12.1 87 9.33 10 6 13 1017.6 0 21.2 27.8 43.9 115.3 111.0 382.2
Port Macquarie Airport 15 01:00 11.2 90 9.12 9.6 0 0 1014.4 0 20.8 27.6 43.4 113.9 109.1 375.4
Portable Npws Nsw05 15 00:30 9.8 100 9.28 9.8 0 0 1013.1 1.4 21.3 28.3 44.8 117.7 113.2 389.9
Portable Rfsnsw01 15 00:40 10.3 100 9.58 10.3 4 4 1013.1 4 21.9 28.6 45.8 120.4 116.8 402.4
Portable Rfsnsw02 15 00:50 12.9 99 11.16 12.7 2 4 1013.1 0 25.1 30.5 51.2 134.7 135.4 467.7
Portable Rfsnsw04 15 00:50 8 98 8.11 7.7 2 4 1013.1 2.6 18.8 26.8 40.7 106.9 99.2 340.3
Portable Rfsnsw51 15 00:40 7.5 93 7.45 6.4 4 6 1013.1 0 17.4 25.8 38.2 100.1 90.6 310.3
Portable Rfsnsw52 15 00:50 7.5 88 7.05 5.6 6 7 1013.1 0 16.5 25.2 36.5 95.6 85.1 291.1
Portable Rfsnsw53 15 00:40 7.5 100 8.01 7.5 2 4 1013.1 1 18.6 26.8 40.6 106.4 98.4 337.6
Portable Wn01 (Water Nsw) 15 00:50 9.4 90 8.14 7.9 9 13 1013.1 0.4 18.8 26.4 40.1 105.3 97.8 335.7
Richmond 15 01:00 10.8 99 9.79 10.6 7 9 1017.3 3.2 22.3 29.0 46.6 122.6 119.4 411.6
Scone Airport 15 01:00 10.7 100 9.82 10.7 11 13 1015.8 0.6 22.4 29.0 46.8 122.9 119.9 413.2
Singleton (Defence) 15 01:00 11.2 84 8.52 8.6 7 13 1013.1 0 19.5 26.5 40.8 107.1 100.7 346.1
Smithville 15 01:00 10.6 78 7.61 6.9 1013.1 0 17.6 25.2 37.4 97.9 89.1 305.6
Sydney - Observatory Hill 15 01:00 11.4 98 10.06 11.1 7 1017.3 58.2 22.8 29.3 47.5 124.8 122.4 422.0
Sydney Airport 15 01:00 11.8 97 10.21 11.3 15 17 1017 56.6 23.1 29.4 47.9 125.9 123.9 427.2
Sydney Olympic Park 15 01:00 11.7 97 10.15 11.2 2 7 1013.1 9.2 23.0 29.2 47.5 124.9 122.8 423.5
Tamworth Airport 15 01:00 7.8 97 7.92 7.4 2 7 1015.4 0 18.4 26.6 40.1 105.2 96.9 332.5
Taree Airport 15 01:00 12.1 96 10.3 11.5 6 7 1014.8 0 23.3 29.4 48.0 126.2 124.5 429.4
Temora 15 01:00 8.8 93 8.1 7.7 9 15 1018.1 0.2 18.8 26.7 40.5 106.2 98.4 337.7
Terrey Hills 15 01:00 10.2 96 9.14 9.6 7 15 1013.1 18.4 20.9 27.9 44.0 115.5 110.7 380.9
Thredbo Village 14 15:00 3 100 5.95 3 4 1013.1 0 14.4 24.6 34.0 88.8 74.7 254.0
Tibooburra Airport 15 01:00 11.2 70 7.1 5.9 15 19 1016.4 0 16.5 24.3 35.2 92.1 82.0 280.7
Tocal 15 01:00 11.8 90 9.47 10.2 2 6 1013.1 0.2 21.6 27.9 44.5 116.9 113.0 389.2
Trangie 15 01:00 8.9 94 8.24 8 7 11 1017.3 0.8 19.0 26.9 41.0 107.6 100.2 343.9
Wagga Wagga 15 01:00 8.1 92 7.66 6.9 9 11 1018.4 0.4 17.8 26.2 39.0 102.2 93.2 319.4
Walgett 15 01:00 9 86 7.58 6.8 19 24 1017.6 0.2 17.6 25.8 38.2 100.1 90.9 311.7
West Wyalong 15 01:00 7.3 95 7.51 6.6 0 0 1018 1 17.5 26.2 38.8 101.5 92.0 315.2
White Cliffs Aws 15 01:00 8.9 90 7.89 7.4 9 13 1016.4 0.2 18.3 26.3 39.5 103.5 95.2 326.6
Wilcannia Airport 15 01:00 7.2 92 7.23 6 11 13 1016.1 0 16.9 25.7 37.5 98.3 88.1 301.6
Williamtown 15 01:00 11.9 94 9.96 11 9 11 1015.8 17.2 22.6 28.9 46.6 122.7 120.0 413.8
Yamba 15 01:00 12.7 91 10.13 11.3 9 15 1014.2 0 22.9 28.8 46.8 123.2 121.0 417.4
Yanco 15 01:00 7.5 98 7.85 7.2 4 4 1013.1 1.6 18.3 26.5 39.9 104.6 96.1 329.7
Young 15 01:00 8.3 93 7.84 7.2 7 11 1017.8 4.2 18.2 26.4 39.6 103.9 95.4 327.1

Last Refresh: 15-Jun-2024 00:45:49

Bureau of Meteorology